Time,TemperatureF,DewpointF,PressureIn,WindDirection,WindDirectionDegrees,WindSpeedMPH,WindSpeedGustMPH,Humidity,HourlyPrecipIn,Conditions,Clouds,dailyrainin,SoftwareType,DateUTC
2013-03-25 00:09:00,50.9,34.3,-100.00,NE,45,0.0,2.0,53,0.00,,,0.00,meteohub,2013-03-24 22:09:00,
2013-03-25 00:15:00,50.4,34.9,-100.00,North,0,2.0,3.0,55,0.00,,,0.00,meteohub,2013-03-24 22:15:00,
2013-03-25 00:21:00,50.4,34.9,-100.00,NE,45,0.0,3.0,55,0.00,,,0.00,meteohub,2013-03-24 22:21:00,
2013-03-25 00:26:00,50.4,35.2,-100.00,NE,45,0.0,3.0,56,0.00,,,0.00,meteohub,2013-03-24 22:26:00,
2013-03-25 00:31:00,50.2,35.6,-100.00,NE,45,0.0,2.0,57,0.00,,,0.00,meteohub,2013-03-24 22:31:00,
2013-03-25 00:37:00,50.2,35.1,-100.00,North,0,1.0,2.0,56,0.00,,,0.00,meteohub,2013-03-24 22:37:00,
2013-03-25 00:42:00,50.2,35.1,-100.00,North,0,2.0,3.0,56,0.00,,,0.00,meteohub,2013-03-24 22:42:00,
2013-03-25 00:47:00,50.2,35.1,-100.00,NE,45,1.0,3.0,56,0.00,,,0.00,meteohub,2013-03-24 22:47:00,
2013-03-25 00:52:00,50.0,35.4,-100.00,North,0,3.0,3.0,57,0.00,,,0.00,meteohub,2013-03-24 22:52:00,
2013-03-25 00:58:00,49.6,35.4,-100.00,NE,45,1.0,3.0,58,0.00,,,0.00,meteohub,2013-03-24 22:58:00,
2013-03-25 01:04:00,49.5,35.8,-100.00,North,0,2.0,3.0,59,0.00,,,0.00,meteohub,2013-03-24 23:04:00,
2013-03-25 01:09:00,49.1,36.3,-100.00,NE,45,3.0,3.0,61,0.00,,,0.00,meteohub,2013-03-24 23:09:00,
2013-03-25 01:15:00,48.7,36.3,-100.00,NNE,22,0.0,4.0,62,0.00,,,0.00,meteohub,2013-03-24 23:15:00,
2013-03-25 01:21:00,48.4,37.2,-100.00,NE,45,1.0,4.0,65,0.00,,,0.00,meteohub,2013-03-24 23:21:00,
2013-03-25 01:26:00,48.0,37.2,-100.00,NE,45,2.0,4.0,66,0.00,,,0.00,meteohub,2013-03-24 23:26:00,
2013-03-25 01:32:00,47.7,37.6,-100.00,NE,45,1.0,4.0,68,0.00,,,0.00,meteohub,2013-03-24 23:32:00,
2013-03-25 01:37:00,47.5,37.8,-100.00,NE,45,0.0,4.0,69,0.00,,,0.00,meteohub,2013-03-24 23:37:00,
2013-03-25 01:42:00,47.3,37.6,-100.00,NE,45,1.0,4.0,69,0.00,,,0.00,meteohub,2013-03-24 23:42:00,
2013-03-25 01:47:00,47.1,37.8,-100.00,NE,45,2.0,4.0,70,0.00,,,0.00,meteohub,2013-03-24 23:47:00,
2013-03-25 01:53:00,46.8,37.9,-100.00,NE,45,0.0,4.0,71,0.00,,,0.00,meteohub,2013-03-24 23:53:00,
2013-03-25 01:59:00,46.6,38.1,-100.00,NE,45,0.0,4.0,72,0.00,,,0.00,meteohub,2013-03-24 23:59:00,
2013-03-25 02:04:00,46.4,38.3,-100.00,NE,45,1.0,3.0,73,0.00,,,0.00,meteohub,2013-03-25 00:04:00,
2013-03-25 02:09:00,46.2,38.5,-100.00,North,0,3.0,3.0,74,0.00,,,0.00,meteohub,2013-03-25 00:09:00,
2013-03-25 02:15:00,46.0,38.5,-100.00,NE,45,3.0,4.0,75,0.00,,,0.00,meteohub,2013-03-25 00:15:00,
2013-03-25 02:21:00,45.7,39.2,-100.00,North,0,1.0,4.0,78,0.00,,,0.00,meteohub,2013-03-25 00:21:00,
2013-03-25 02:27:00,45.5,39.4,-100.00,North,0,2.0,4.0,79,0.00,,,0.00,meteohub,2013-03-25 00:27:00,
2013-03-25 02:32:00,45.3,39.9,-100.00,NE,45,3.0,4.0,81,0.00,,,0.00,meteohub,2013-03-25 00:32:00,
2013-03-25 02:38:00,45.0,40.1,-100.00,NE,45,3.0,6.0,83,0.00,,,0.00,meteohub,2013-03-25 00:38:00,
2013-03-25 02:44:00,44.8,40.3,-100.00,NE,45,4.0,7.0,84,0.00,,,0.00,meteohub,2013-03-25 00:44:00,
2013-03-25 02:49:00,44.8,40.3,-100.00,NE,45,4.0,7.0,84,0.00,,,0.00,meteohub,2013-03-25 00:49:00,
2013-03-25 02:55:00,44.8,40.5,-100.00,NE,45,2.0,7.0,85,0.00,,,0.00,meteohub,2013-03-25 00:55:00,
2013-03-25 03:01:00,44.6,40.1,-100.00,NE,45,2.0,5.0,84,0.00,,,0.00,meteohub,2013-03-25 01:01:00,
2013-03-25 03:06:00,44.6,40.5,-100.00,NE,45,3.0,5.0,85,0.00,,,0.00,meteohub,2013-03-25 01:06:00,
2013-03-25 03:12:00,44.6,40.5,-100.00,North,0,4.0,5.0,85,0.00,,,0.00,meteohub,2013-03-25 01:12:00,
2013-03-25 03:18:00,44.8,40.8,-100.00,North,0,1.0,5.0,86,0.00,,,0.00,meteohub,2013-03-25 01:18:00,
2013-03-25 03:23:00,44.8,40.8,-100.00,NE,45,3.0,5.0,86,0.00,,,0.00,meteohub,2013-03-25 01:23:00,
2013-03-25 03:28:00,44.6,41.0,-100.00,NE,45,3.0,6.0,87,0.00,,,0.00,meteohub,2013-03-25 01:28:00,
2013-03-25 08:59:00,52.0,38.5,-100.00,NE,45,6.0,-999.0,60,0.00,,,0.00,meteohub,2013-03-25 06:59:00,
2013-03-25 09:00:00,51.8,38.3,-100.00,North,0,4.0,-999.0,60,0.00,,,0.00,meteohub,2013-03-25 07:00:00,
2013-03-25 09:01:00,51.8,38.3,-100.00,NE,45,2.0,-999.0,60,0.00,,,0.00,meteohub,2013-03-25 07:01:00,
2013-03-25 09:04:00,52.0,39.4,-100.00,NE,45,1.0,-999.0,62,0.00,,,0.00,meteohub,2013-03-25 07:04:00,
2013-03-25 09:10:00,52.0,39.0,-100.00,North,0,1.0,6.0,61,0.00,,,0.00,meteohub,2013-03-25 07:10:00,
2013-03-25 09:15:00,51.8,38.3,-100.00,North,0,2.0,6.0,60,0.00,,,0.00,meteohub,2013-03-25 07:15:00,
2013-03-25 09:20:00,51.6,38.1,-100.00,NE,45,3.0,6.0,60,0.00,,,0.00,meteohub,2013-03-25 07:20:00,
2013-03-25 09:26:00,51.1,37.8,-100.00,NE,45,3.0,5.0,60,0.00,,,0.00,meteohub,2013-03-25 07:26:00,
2013-03-25 09:32:00,50.7,38.1,-100.00,NE,45,4.0,5.0,62,0.00,,,0.00,meteohub,2013-03-25 07:32:00,
2013-03-25 09:37:00,50.7,38.7,-100.00,NE,45,2.0,8.0,63,0.00,,,0.00,meteohub,2013-03-25 07:37:00,
2013-03-25 09:46:00,50.9,39.2,-100.00,NNE,22,3.0,8.0,64,0.00,,,0.00,meteohub,2013-03-25 07:46:00,
2013-03-25 09:51:00,50.7,38.1,-100.00,NE,45,3.0,9.0,62,0.00,,,0.00,meteohub,2013-03-25 07:51:00,
2013-03-25 09:56:00,50.7,38.1,-100.00,NE,45,3.0,10.0,62,0.00,,,0.00,meteohub,2013-03-25 07:56:00,
2013-03-25 10:02:00,51.1,38.8,-100.00,NE,45,4.0,10.0,63,0.00,,,0.00,meteohub,2013-03-25 08:02:00,
2013-03-25 10:07:00,51.3,38.7,-100.00,North,0,1.0,10.0,62,0.00,,,0.00,meteohub,2013-03-25 08:07:00,
2013-03-25 10:12:00,51.4,38.5,-100.00,NE,45,3.0,7.0,61,0.00,,,0.00,meteohub,2013-03-25 08:12:00,
2013-03-25 10:17:00,51.6,39.0,-100.00,North,0,5.0,7.0,62,0.00,,,0.00,meteohub,2013-03-25 08:17:00,
2013-03-25 10:23:00,51.8,38.8,-100.00,NE,45,3.0,6.0,61,0.00,,,0.00,meteohub,2013-03-25 08:23:00,
2013-03-25 10:28:00,52.0,39.0,-100.00,NE,45,1.0,6.0,61,0.00,,,0.00,meteohub,2013-03-25 08:28:00,
2013-03-25 10:33:00,52.0,38.5,-100.00,NE,45,3.0,6.0,60,0.00,,,0.00,meteohub,2013-03-25 08:33:00,
2013-03-25 10:38:00,52.2,38.7,-100.00,NE,45,4.0,6.0,60,0.00,,,0.00,meteohub,2013-03-25 08:38:00,
2013-03-25 10:44:00,52.3,38.8,-100.00,NE,45,2.0,6.0,60,0.00,,,0.00,meteohub,2013-03-25 08:44:00,
2013-03-25 10:49:00,52.3,37.9,-100.00,NE,45,3.0,6.0,58,0.00,,,0.00,meteohub,2013-03-25 08:49:00,
2013-03-25 10:55:00,52.5,37.8,-100.00,NE,45,6.0,7.0,57,0.00,,,0.00,meteohub,2013-03-25 08:55:00,
2013-03-25 11:00:00,52.5,37.2,-100.00,NE,45,3.0,8.0,56,0.00,,,0.00,meteohub,2013-03-25 09:00:00,
2013-03-25 11:06:00,52.5,36.9,-100.00,NE,45,5.0,8.0,55,0.00,,,0.00,meteohub,2013-03-25 09:06:00,
2013-03-25 11:11:00,52.2,36.5,-100.00,NE,45,3.0,7.0,55,0.00,,,0.00,meteohub,2013-03-25 09:11:00,
2013-03-25 11:16:00,52.2,36.9,-100.00,NE,45,3.0,9.0,56,0.00,,,0.00,meteohub,2013-03-25 09:16:00,
2013-03-25 11:22:00,52.7,37.9,-100.00,NE,45,2.0,9.0,57,0.00,,,0.00,meteohub,2013-03-25 09:22:00,
2013-03-25 11:27:00,53.1,38.3,-100.00,NE,45,3.0,9.0,57,0.00,,,0.00,meteohub,2013-03-25 09:27:00,
2013-03-25 11:32:00,53.4,38.5,-100.00,NE,45,4.0,6.0,57,0.00,,,0.00,meteohub,2013-03-25 09:32:00,
2013-03-25 11:37:00,53.4,37.6,-100.00,NE,45,5.0,6.0,55,0.00,,,0.00,meteohub,2013-03-25 09:37:00,
2013-03-25 11:43:00,53.4,37.6,-100.00,NE,45,1.0,8.0,55,0.00,,,0.00,meteohub,2013-03-25 09:43:00,
2013-03-25 11:48:00,53.6,36.9,-100.00,NE,45,4.0,8.0,53,0.00,,,0.00,meteohub,2013-03-25 09:48:00,
2013-03-25 11:53:00,53.8,37.6,-100.00,NE,45,3.0,7.0,54,0.00,,,0.00,meteohub,2013-03-25 09:53:00,
2013-03-25 11:58:00,53.8,37.9,-100.00,NNE,22,3.0,7.0,55,0.00,,,0.00,meteohub,2013-03-25 09:58:00,
2013-03-25 12:04:00,53.6,37.4,-100.00,NNE,22,4.0,7.0,54,0.00,,,0.00,meteohub,2013-03-25 10:04:00,
2013-03-25 12:09:00,53.4,37.2,-100.00,NE,45,4.0,8.0,54,0.00,,,0.00,meteohub,2013-03-25 10:09:00,
2013-03-25 12:15:00,54.0,38.1,-100.00,North,0,7.0,8.0,55,0.00,,,0.00,meteohub,2013-03-25 10:15:00,
2013-03-25 12:20:00,54.0,37.8,-100.00,NE,45,2.0,9.0,54,0.00,,,0.00,meteohub,2013-03-25 10:20:00,
2013-03-25 12:26:00,54.1,38.3,-100.00,NE,45,3.0,9.0,55,0.00,,,0.00,meteohub,2013-03-25 10:26:00,
2013-03-25 12:31:00,54.1,37.9,-100.00,NE,45,4.0,6.0,54,0.00,,,0.00,meteohub,2013-03-25 10:31:00,
2013-03-25 12:37:00,54.1,37.9,-100.00,NE,45,8.0,8.0,54,0.00,,,0.00,meteohub,2013-03-25 10:37:00,
2013-03-25 12:43:00,54.1,37.9,-100.00,NE,45,2.0,8.0,54,0.00,,,0.00,meteohub,2013-03-25 10:43:00,
2013-03-25 12:48:00,54.1,37.9,-100.00,NE,45,3.0,8.0,54,0.00,,,0.00,meteohub,2013-03-25 10:48:00,
2013-03-25 12:54:00,54.0,37.2,-100.00,NE,45,3.0,8.0,53,0.00,,,0.00,meteohub,2013-03-25 10:54:00,
2013-03-25 12:59:00,53.8,37.0,-100.00,NE,45,2.0,7.0,53,0.00,,,0.00,meteohub,2013-03-25 10:59:00,
2013-03-25 13:04:00,53.8,37.6,-100.00,North,0,2.0,8.0,54,0.00,,,0.00,meteohub,2013-03-25 11:04:00,
2013-03-25 13:09:00,53.6,36.9,-100.00,NE,45,2.0,8.0,53,0.00,,,0.00,meteohub,2013-03-25 11:09:00,
2013-03-25 13:15:00,53.8,37.6,-100.00,North,0,2.0,10.0,54,0.00,,,0.00,meteohub,2013-03-25 11:15:00,
2013-03-25 13:20:00,53.8,37.6,-100.00,NE,45,4.0,10.0,54,0.00,,,0.00,meteohub,2013-03-25 11:20:00,
2013-03-25 13:25:00,53.6,37.4,-100.00,NE,45,0.0,7.0,54,0.00,,,0.00,meteohub,2013-03-25 11:25:00,
2013-03-25 13:31:00,53.4,37.2,-100.00,NNE,22,2.0,6.0,54,0.00,,,0.00,meteohub,2013-03-25 11:31:00,
2013-03-25 13:37:00,53.4,37.2,-100.00,NE,45,4.0,6.0,54,0.00,,,0.00,meteohub,2013-03-25 11:37:00,
2013-03-25 13:42:00,53.4,37.6,-100.00,NE,45,5.0,6.0,55,0.00,,,0.00,meteohub,2013-03-25 11:42:00,
2013-03-25 13:47:00,53.2,37.0,-100.00,NNE,22,1.0,6.0,54,0.00,,,0.00,meteohub,2013-03-25 11:47:00,
2013-03-25 13:52:00,53.1,36.9,-100.00,East,90,2.0,6.0,54,0.00,,,0.00,meteohub,2013-03-25 11:52:00,
2013-03-25 13:58:00,52.7,36.5,-100.00,NE,45,2.0,6.0,54,0.00,,,0.00,meteohub,2013-03-25 11:58:00,
2013-03-25 14:03:00,52.0,36.9,-100.00,ENE,68,3.0,9.0,56,0.00,,,0.00,meteohub,2013-03-25 12:03:00,
2013-03-25 14:09:00,51.8,37.0,-100.00,NE,45,2.0,9.0,57,0.00,,,0.00,meteohub,2013-03-25 12:09:00,
2013-03-25 14:15:00,51.6,37.4,-100.00,NE,45,3.0,4.0,58,0.00,,,0.00,meteohub,2013-03-25 12:15:00,
2013-03-25 14:20:00,51.6,37.8,-100.00,North,0,2.0,4.0,59,0.00,,,0.00,meteohub,2013-03-25 12:20:00,
2013-03-25 14:26:00,51.4,37.9,-100.00,NE,45,0.0,5.0,60,0.00,,,0.00,meteohub,2013-03-25 12:26:00,
2013-03-25 14:31:00,51.4,37.9,-100.00,NE,45,0.0,5.0,60,0.00,,,0.00,meteohub,2013-03-25 12:31:00,
2013-03-25 14:36:00,51.4,37.9,-100.00,NE,45,2.0,5.0,60,0.00,,,0.00,meteohub,2013-03-25 12:36:00,
2013-03-25 14:42:00,51.3,37.8,-100.00,NW,315,2.0,8.0,60,0.00,,,0.00,meteohub,2013-03-25 12:42:00,
2013-03-25 14:49:00,51.3,38.3,-100.00,South,180,2.0,8.0,61,0.00,,,0.00,meteohub,2013-03-25 12:49:00,
2013-03-25 14:55:00,51.3,38.3,-100.00,NE,45,2.0,6.0,61,0.00,,,0.00,meteohub,2013-03-25 12:55:00,
2013-03-25 15:00:00,51.1,38.1,-100.00,NNE,22,1.0,6.0,61,0.00,,,0.00,meteohub,2013-03-25 13:00:00,
2013-03-25 15:06:00,51.3,38.7,-100.00,East,90,4.0,6.0,62,0.00,,,0.00,meteohub,2013-03-25 13:06:00,
2013-03-25 15:12:00,51.4,38.8,-100.00,North,0,2.0,6.0,62,0.00,,,0.00,meteohub,2013-03-25 13:12:00,
2013-03-25 15:17:00,51.8,39.2,-100.00,East,90,3.0,6.0,62,0.00,,,0.00,meteohub,2013-03-25 13:17:00,
2013-03-25 15:22:00,52.0,39.0,-100.00,NE,45,2.0,6.0,61,0.00,,,0.00,meteohub,2013-03-25 13:22:00,
2013-03-25 15:27:00,52.2,38.7,-100.00,South,180,1.0,4.0,60,0.00,,,0.00,meteohub,2013-03-25 13:27:00,
2013-03-25 15:33:00,52.2,38.7,-100.00,NE,45,2.0,4.0,60,0.00,,,0.00,meteohub,2013-03-25 13:33:00,
2013-03-25 15:39:00,51.6,38.7,-100.00,NE,45,2.0,6.0,61,0.00,,,0.00,meteohub,2013-03-25 13:39:00,
2013-03-25 15:44:00,51.4,38.5,-100.00,NE,45,2.0,7.0,61,0.00,,,0.00,meteohub,2013-03-25 13:44:00,
2013-03-25 15:49:00,51.6,39.0,-100.00,SSW,202,1.0,7.0,62,0.00,,,0.00,meteohub,2013-03-25 13:49:00,
2013-03-25 15:55:00,51.6,39.0,-100.00,South,180,1.0,5.0,62,0.00,,,0.00,meteohub,2013-03-25 13:55:00,
2013-03-25 16:00:00,51.8,39.2,-100.00,NE,45,2.0,5.0,62,0.00,,,0.00,meteohub,2013-03-25 14:00:00,
2013-03-25 16:06:00,51.6,39.0,-100.00,NE,45,2.0,5.0,62,0.00,,,0.00,meteohub,2013-03-25 14:06:00,
2013-03-25 16:12:00,51.1,38.5,-100.00,NE,45,5.0,5.0,62,0.00,,,0.00,meteohub,2013-03-25 14:12:00,
2013-03-25 16:18:00,50.9,39.2,-100.00,North,0,1.0,5.0,64,0.00,,,0.00,meteohub,2013-03-25 14:18:00,
2013-03-25 16:23:00,50.5,38.8,-100.00,North,0,4.0,5.0,64,0.00,,,0.00,meteohub,2013-03-25 14:23:00,
2013-03-25 16:28:00,50.2,38.8,-100.00,NE,45,3.0,6.0,65,0.00,,,0.00,meteohub,2013-03-25 14:28:00,
2013-03-25 16:33:00,50.0,39.0,-100.00,NNE,22,3.0,6.0,66,0.00,,,0.00,meteohub,2013-03-25 14:33:00,
2013-03-25 16:38:00,50.0,39.6,-100.00,NE,45,5.0,7.0,67,0.00,,,0.00,meteohub,2013-03-25 14:38:00,
2013-03-25 16:44:00,49.8,39.4,-100.00,NNE,22,2.0,7.0,67,0.00,,,0.00,meteohub,2013-03-25 14:44:00,
2013-03-25 16:49:00,49.5,39.4,-100.00,NE,45,4.0,7.0,68,0.00,,,0.00,meteohub,2013-03-25 14:49:00,
2013-03-25 16:54:00,49.3,39.2,-100.00,NE,45,6.0,7.0,68,0.00,,,0.00,meteohub,2013-03-25 14:54:00,
2013-03-25 16:59:00,49.1,39.4,-100.00,NE,45,2.0,7.0,69,0.00,,,0.00,meteohub,2013-03-25 14:59:00,
2013-03-25 17:04:00,49.1,39.4,-100.00,NE,45,4.0,7.0,69,0.00,,,0.00,meteohub,2013-03-25 15:04:00,
2013-03-25 17:10:00,48.9,39.6,-100.00,NE,45,3.0,8.0,70,0.00,,,0.00,meteohub,2013-03-25 15:10:00,
2013-03-25 17:15:00,48.9,39.6,-100.00,NNE,22,4.0,8.0,70,0.00,,,0.00,meteohub,2013-03-25 15:15:00,
2013-03-25 17:20:00,48.7,39.7,-100.00,NE,45,2.0,6.0,71,0.00,,,0.00,meteohub,2013-03-25 15:20:00,
2013-03-25 17:26:00,48.9,39.9,-100.00,South,180,1.0,6.0,71,0.00,,,0.00,meteohub,2013-03-25 15:26:00,
2013-03-25 17:31:00,48.9,39.6,-100.00,South,180,3.0,6.0,70,0.00,,,0.00,meteohub,2013-03-25 15:31:00,
2013-03-25 17:37:00,49.1,39.7,-100.00,South,180,0.0,4.0,70,0.00,,,0.00,meteohub,2013-03-25 15:37:00,
2013-03-25 17:42:00,48.9,39.6,-100.00,SSW,202,2.0,3.0,70,0.00,,,0.00,meteohub,2013-03-25 15:42:00,
2013-03-25 17:47:00,49.1,39.7,-100.00,South,180,1.0,3.0,70,0.00,,,0.00,meteohub,2013-03-25 15:47:00,
2013-03-25 17:52:00,49.1,39.7,-100.00,SSW,202,1.0,3.0,70,0.00,,,0.00,meteohub,2013-03-25 15:52:00,
2013-03-25 17:58:00,49.1,39.7,-100.00,South,180,2.0,3.0,70,0.00,,,0.00,meteohub,2013-03-25 15:58:00,
2013-03-25 18:04:00,49.1,39.7,-100.00,NE,45,3.0,4.0,70,0.00,,,0.00,meteohub,2013-03-25 16:04:00,
2013-03-25 18:09:00,48.9,39.6,-100.00,NE,45,2.0,4.0,70,0.00,,,0.00,meteohub,2013-03-25 16:09:00,
2013-03-25 18:15:00,48.9,39.6,-100.00,South,180,5.0,5.0,70,0.00,,,0.00,meteohub,2013-03-25 16:15:00,
2013-03-25 18:20:00,48.9,39.6,-100.00,NE,45,1.0,5.0,70,0.00,,,0.00,meteohub,2013-03-25 16:20:00,
2013-03-25 18:26:00,48.9,39.6,-100.00,East,90,3.0,5.0,70,0.00,,,0.00,meteohub,2013-03-25 16:26:00,
2013-03-25 18:31:00,49.1,39.7,-100.00,NE,45,0.0,5.0,70,0.00,,,0.00,meteohub,2013-03-25 16:31:00,
2013-03-25 18:37:00,49.1,39.7,-100.00,South,180,2.0,5.0,70,0.00,,,0.00,meteohub,2013-03-25 16:37:00,
2013-03-25 18:42:00,49.3,39.9,-100.00,SSW,202,2.0,5.0,70,0.00,,,0.00,meteohub,2013-03-25 16:42:00,
2013-03-25 18:48:00,49.1,39.7,-100.00,SW,225,1.0,3.0,70,0.00,,,0.00,meteohub,2013-03-25 16:48:00,
2013-03-25 18:53:00,49.1,39.7,-100.00,South,180,0.0,3.0,70,0.00,,,0.00,meteohub,2013-03-25 16:53:00,
2013-03-25 18:58:00,49.3,40.3,-100.00,South,180,2.0,2.0,71,0.00,,,0.00,meteohub,2013-03-25 16:58:00,
2013-03-25 19:04:00,49.1,40.1,-100.00,SW,225,3.0,3.0,71,0.00,,,0.00,meteohub,2013-03-25 17:04:00,
2013-03-25 19:09:00,48.9,39.9,-100.00,SSW,202,4.0,4.0,71,0.00,,,0.00,meteohub,2013-03-25 17:09:00,
2013-03-25 19:14:00,48.7,39.7,-100.00,North,0,3.0,4.0,71,0.00,,,0.00,meteohub,2013-03-25 17:14:00,
2013-03-25 19:19:00,48.6,39.6,-100.00,NE,45,1.0,4.0,71,0.00,,,0.00,meteohub,2013-03-25 17:19:00,
2013-03-25 19:25:00,48.2,39.2,-100.00,NE,45,0.0,4.0,71,0.00,,,0.00,meteohub,2013-03-25 17:25:00,
2013-03-25 19:30:00,48.0,39.4,-100.00,NE,45,0.0,4.0,72,0.00,,,0.00,meteohub,2013-03-25 17:30:00,
2013-03-25 19:36:00,48.0,39.7,-100.00,NE,45,3.0,4.0,73,0.00,,,0.00,meteohub,2013-03-25 17:36:00,
2013-03-25 19:41:00,48.0,39.7,-100.00,East,90,0.0,4.0,73,0.00,,,0.00,meteohub,2013-03-25 17:41:00,
2013-03-25 19:46:00,48.0,40.1,-100.00,SSE,158,2.0,4.0,74,0.00,,,0.00,meteohub,2013-03-25 17:46:00,
2013-03-25 19:52:00,47.8,39.9,-100.00,East,90,3.0,4.0,74,0.00,,,0.00,meteohub,2013-03-25 17:52:00,
2013-03-25 19:59:00,47.8,40.3,-100.00,NE,45,1.0,4.0,75,0.00,,,0.00,meteohub,2013-03-25 17:59:00,
2013-03-25 20:04:00,47.8,40.3,-100.00,NE,45,2.0,4.0,75,0.00,,,0.00,meteohub,2013-03-25 18:04:00,
2013-03-25 20:09:00,47.7,40.1,-100.00,NE,45,0.0,3.0,75,0.00,,,0.00,meteohub,2013-03-25 18:09:00,
2013-03-25 20:15:00,47.7,40.1,-100.00,East,90,4.0,6.0,75,0.00,,,0.00,meteohub,2013-03-25 18:15:00,
2013-03-25 20:20:00,47.7,40.1,-100.00,NE,45,3.0,6.0,75,0.00,,,0.00,meteohub,2013-03-25 18:20:00,
2013-03-25 20:25:00,47.7,40.1,-100.00,NNE,22,1.0,9.0,75,0.00,,,0.00,meteohub,2013-03-25 18:25:00,
2013-03-25 20:31:00,47.7,40.1,-100.00,North,0,1.0,9.0,75,0.00,,,0.00,meteohub,2013-03-25 18:31:00,
2013-03-25 20:37:00,47.7,40.1,-100.00,North,0,1.0,9.0,75,0.00,,,0.00,meteohub,2013-03-25 18:37:00,
2013-03-25 20:42:00,47.5,40.3,-100.00,North,0,2.0,6.0,76,0.00,,,0.00,meteohub,2013-03-25 18:42:00,
2013-03-25 20:48:00,47.3,40.1,-100.00,NE,45,3.0,6.0,76,0.00,,,0.00,meteohub,2013-03-25 18:48:00,
2013-03-25 20:53:00,47.3,40.5,-100.00,East,90,0.0,5.0,77,0.00,,,0.00,meteohub,2013-03-25 18:53:00,
2013-03-25 20:58:00,47.3,40.5,-100.00,East,90,1.0,5.0,77,0.00,,,0.00,meteohub,2013-03-25 18:58:00,
2013-03-25 21:04:00,47.3,40.1,-100.00,NE,45,1.0,5.0,76,0.00,,,0.00,meteohub,2013-03-25 19:04:00,
2013-03-25 21:09:00,47.3,40.1,-100.00,NE,45,0.0,4.0,76,0.00,,,0.00,meteohub,2013-03-25 19:09:00,
2013-03-25 21:15:00,47.3,40.5,-100.00,NNE,22,1.0,3.0,77,0.00,,,0.00,meteohub,2013-03-25 19:15:00,
2013-03-25 21:20:00,47.3,40.5,-100.00,West,270,1.0,4.0,77,0.00,,,0.00,meteohub,2013-03-25 19:20:00,
2013-03-25 21:25:00,47.5,40.6,-100.00,NE,45,1.0,4.0,77,0.00,,,0.00,meteohub,2013-03-25 19:25:00,
2013-03-25 21:32:00,47.3,40.8,-100.00,East,90,1.0,4.0,78,0.00,,,0.00,meteohub,2013-03-25 19:32:00,
2013-03-25 21:38:00,47.3,41.2,-100.00,NNE,22,4.0,7.0,79,0.00,,,0.00,meteohub,2013-03-25 19:38:00,
2013-03-25 21:43:00,47.1,41.4,-100.00,East,90,1.0,7.0,80,0.00,,,0.00,meteohub,2013-03-25 19:43:00,
2013-03-25 21:49:00,47.1,41.4,-100.00,North,0,1.0,7.0,80,0.00,,,0.00,meteohub,2013-03-25 19:49:00,
2013-03-25 21:55:00,47.1,41.4,-100.00,North,0,1.0,7.0,80,0.00,,,0.00,meteohub,2013-03-25 19:55:00,
2013-03-25 22:00:00,47.1,41.5,-100.00,SSE,158,1.0,4.0,81,0.00,,,0.00,meteohub,2013-03-25 20:00:00,
2013-03-25 22:06:00,47.1,41.5,-100.00,NW,315,3.0,4.0,81,0.00,,,0.00,meteohub,2013-03-25 20:06:00,
2013-03-25 22:12:00,47.1,41.5,-100.00,NE,45,3.0,4.0,81,0.00,,,0.00,meteohub,2013-03-25 20:12:00,
2013-03-25 22:18:00,47.1,41.5,-100.00,NE,45,1.0,5.0,81,0.00,,,0.00,meteohub,2013-03-25 20:18:00,
2013-03-25 22:23:00,47.1,41.5,-100.00,NNE,22,3.0,5.0,81,0.00,,,0.00,meteohub,2013-03-25 20:23:00,
2013-03-25 22:28:00,47.1,41.5,-100.00,North,0,2.0,6.0,81,0.00,,,0.00,meteohub,2013-03-25 20:28:00,
2013-03-25 22:33:00,47.1,41.5,-100.00,NNE,22,3.0,6.0,81,0.00,,,0.00,meteohub,2013-03-25 20:33:00,
2013-03-25 22:39:00,47.1,41.9,-100.00,NE,45,1.0,6.0,82,0.00,,,0.00,meteohub,2013-03-25 20:39:00,
2013-03-25 22:44:00,47.3,42.1,-100.00,SE,135,3.0,6.0,82,0.00,,,0.00,meteohub,2013-03-25 20:44:00,
2013-03-25 22:50:00,47.3,42.1,-100.00,South,180,0.0,6.0,82,0.00,,,0.00,meteohub,2013-03-25 20:50:00,
2013-03-25 22:55:00,47.3,41.7,-100.00,SSW,202,3.0,3.0,81,0.00,,,0.00,meteohub,2013-03-25 20:55:00,
2013-03-25 23:01:00,47.5,41.9,-100.00,SSW,202,1.0,4.0,81,0.00,,,0.00,meteohub,2013-03-25 21:01:00,
2013-03-25 23:06:00,47.5,41.9,-100.00,NE,45,1.0,4.0,81,0.00,,,0.00,meteohub,2013-03-25 21:06:00,
2013-03-25 23:11:00,47.5,41.9,-100.00,NE,45,2.0,4.0,81,0.00,,,0.00,meteohub,2013-03-25 21:11:00,
2013-03-25 23:16:00,47.5,41.9,-100.00,SW,225,1.0,6.0,81,0.00,,,0.00,meteohub,2013-03-25 21:16:00,
2013-03-25 23:22:00,47.7,42.1,-100.00,SSW,202,1.0,6.0,81,0.00,,,0.00,meteohub,2013-03-25 21:22:00,
2013-03-25 23:27:00,47.7,41.7,-100.00,NE,45,0.0,6.0,80,0.00,,,0.00,meteohub,2013-03-25 21:27:00,
2013-03-25 23:33:00,47.8,41.9,-100.00,NE,45,0.0,3.0,80,0.00,,,0.00,meteohub,2013-03-25 21:33:00,
2013-03-25 23:39:00,47.8,41.9,-100.00,South,180,0.0,3.0,80,0.00,,,0.00,meteohub,2013-03-25 21:39:00,
2013-03-25 23:44:00,47.8,41.7,-100.00,WSW,248,0.0,3.0,79,0.00,,,0.00,meteohub,2013-03-25 21:44:00,
2013-03-25 23:49:00,47.8,41.7,-100.00,North,0,0.0,3.0,79,0.00,,,0.00,meteohub,2013-03-25 21:49:00,
2013-03-25 23:54:00,47.7,41.7,-100.00,NE,45,0.0,3.0,80,0.00,,,0.00,meteohub,2013-03-25 21:54:00,